sensor_id;sensor_type;location;lat;lon;timestamp;pressure;altitude;pressure_sealevel;temperature;humidity
70954;BME280;58618;47.490;8.736;2022-12-18T00:00:21;97490.00;;;-2.71;100.00
70954;BME280;58618;47.490;8.736;2022-12-18T00:02:49;97479.75;;;-2.77;100.00
70954;BME280;58618;47.490;8.736;2022-12-18T00:05:17;97483.72;;;-2.83;100.00
70954;BME280;58618;47.490;8.736;2022-12-18T00:07:47;97497.44;;;-2.77;100.00
70954;BME280;58618;47.490;8.736;2022-12-18T00:10:15;97498.81;;;-2.75;100.00
70954;BME280;58618;47.490;8.736;2022-12-18T00:12:42;97455.56;;;-3.03;100.00
70954;BME280;58618;47.490;8.736;2022-12-18T00:15:11;97500.28;;;-2.80;100.00
70954;BME280;58618;47.490;8.736;2022-12-18T00:17:39;97476.66;;;-2.95;100.00
70954;BME280;58618;47.490;8.736;2022-12-18T00:20:09;97500.94;;;-2.86;100.00
70954;BME280;58618;47.490;8.736;2022-12-18T00:22:37;97460.41;;;-2.93;100.00
70954;BME280;58618;47.490;8.736;2022-12-18T00:25:08;97499.81;;;-2.45;100.00
70954;BME280;58618;47.490;8.736;2022-12-18T00:27:36;97462.22;;;-2.71;100.00
70954;BME280;58618;47.490;8.736;2022-12-18T00:30:05;97502.06;;;-2.50;100.00
70954;BME280;58618;47.490;8.736;2022-12-18T00:32:33;97468.78;;;-3.01;100.00
70954;BME280;58618;47.490;8.736;2022-12-18T00:35:00;97527.50;;;-2.60;100.00
70954;BME280;58618;47.490;8.736;2022-12-18T00:37:28;97514.50;;;-2.48;100.00
70954;BME280;58618;47.490;8.736;2022-12-18T00:39:55;97477.78;;;-2.59;100.00
70954;BME280;58618;47.490;8.736;2022-12-18T00:42:25;97491.53;;;-2.31;100.00
70954;BME280;58618;47.490;8.736;2022-12-18T00:45:11;97520.44;;;-2.10;100.00
70954;BME280;58618;47.490;8.736;2022-12-18T00:47:39;97463.47;;;-2.75;100.00
70954;BME280;58618;47.490;8.736;2022-12-18T00:50:08;97453.66;;;-3.01;100.00
70954;BME280;58618;47.490;8.736;2022-12-18T00:52:36;97467.25;;;-3.02;100.00
70954;BME280;58618;47.490;8.736;2022-12-18T00:55:05;97475.06;;;-2.80;100.00
70954;BME280;58618;47.490;8.736;2022-12-18T00:57:35;97501.75;;;-2.55;100.00
70954;BME280;58618;47.490;8.736;2022-12-18T01:00:04;97483.03;;;-2.69;100.00
70954;BME280;58618;47.490;8.736;2022-12-18T01:02:33;97478.84;;;-2.84;100.00
70954;BME280;58618;47.490;8.736;2022-12-18T01:05:01;97500.19;;;-2.64;100.00
70954;BME280;58618;47.490;8.736;2022-12-18T01:07:29;97508.19;;;-2.52;100.00
70954;BME280;58618;47.490;8.736;2022-12-18T01:09:57;97539.88;;;-2.34;100.00
70954;BME280;58618;47.490;8.736;2022-12-18T01:12:25;97527.88;;;-2.40;100.00
70954;BME280;58618;47.490;8.736;2022-12-18T01:14:54;97520.53;;;-2.27;100.00
70954;BME280;58618;47.490;8.736;2022-12-18T01:17:23;97472.31;;;-2.40;100.00
70954;BME280;58618;47.490;8.736;2022-12-18T01:19:51;97513.88;;;-2.20;100.00
70954;BME280;58618;47.490;8.736;2022-12-18T01:22:19;97481.13;;;-2.36;100.00
70954;BME280;58618;47.490;8.736;2022-12-18T01:24:47;97493.44;;;-2.33;100.00
70954;BME280;58618;47.490;8.736;2022-12-18T01:27:17;97525.22;;;-2.16;100.00
70954;BME280;58618;47.490;8.736;2022-12-18T01:29:49;97552.31;;;-2.01;100.00
70954;BME280;58618;47.490;8.736;2022-12-18T01:32:19;97508.91;;;-2.36;100.00
70954;BME280;58618;47.490;8.736;2022-12-18T01:34:48;97561.47;;;-2.00;100.00
70954;BME280;58618;47.490;8.736;2022-12-18T01:37:17;97537.25;;;-2.18;100.00
70954;BME280;58618;47.490;8.736;2022-12-18T01:39:45;97546.47;;;-2.02;100.00
70954;BME280;58618;47.490;8.736;2022-12-18T01:42:17;97501.50;;;-2.37;100.00
70954;BME280;58618;47.490;8.736;2022-12-18T01:44:57;97513.19;;;-2.36;100.00
70954;BME280;58618;47.490;8.736;2022-12-18T01:47:38;97572.84;;;-1.96;100.00
70954;BME280;58618;47.490;8.736;2022-12-18T01:50:09;97515.69;;;-2.28;100.00
70954;BME280;58618;47.490;8.736;2022-12-18T01:52:38;97519.94;;;-2.29;100.00
70954;BME280;58618;47.490;8.736;2022-12-18T01:55:09;97519.00;;;-2.28;100.00
70954;BME280;58618;47.490;8.736;2022-12-18T01:57:46;97514.53;;;-2.26;100.00
70954;BME280;58618;47.490;8.736;2022-12-18T02:00:18;97569.28;;;-1.87;100.00
70954;BME280;58618;47.490;8.736;2022-12-18T02:02:48;97515.84;;;-2.38;100.00
70954;BME280;58618;47.490;8.736;2022-12-18T02:05:19;97572.47;;;-1.93;100.00
70954;BME280;58618;47.490;8.736;2022-12-18T02:07:59;97535.75;;;-2.04;100.00
70954;BME280;58618;47.490;8.736;2022-12-18T02:10:30;97545.69;;;-2.02;100.00
70954;BME280;58618;47.490;8.736;2022-12-18T02:13:06;97540.34;;;-2.07;100.00
70954;BME280;58618;47.490;8.736;2022-12-18T02:15:40;97539.84;;;-2.03;100.00
70954;BME280;58618;47.490;8.736;2022-12-18T02:18:33;97546.75;;;-1.97;100.00
70954;BME280;58618;47.490;8.736;2022-12-18T02:21:10;97536.25;;;-2.08;100.00
70954;BME280;58618;47.490;8.736;2022-12-18T02:23:47;97547.22;;;-1.93;100.00
70954;BME280;58618;47.490;8.736;2022-12-18T02:26:22;97505.34;;;-2.19;100.00
70954;BME280;58618;47.490;8.736;2022-12-18T02:28:56;97530.84;;;-2.05;100.00
70954;BME280;58618;47.490;8.736;2022-12-18T02:31:28;97518.28;;;-2.14;100.00
70954;BME280;58618;47.490;8.736;2022-12-18T02:34:02;97570.88;;;-1.86;100.00
70954;BME280;58618;47.490;8.736;2022-12-18T02:36:31;97558.25;;;-1.94;100.00
70954;BME280;58618;47.490;8.736;2022-12-18T02:39:01;97569.72;;;-1.84;100.00
70954;BME280;58618;47.490;8.736;2022-12-18T02:41:32;97564.16;;;-1.79;100.00
70954;BME280;58618;47.490;8.736;2022-12-18T02:44:01;97520.06;;;-1.99;100.00
70954;BME280;58618;47.490;8.736;2022-12-18T02:46:35;97516.03;;;-2.08;100.00
70954;BME280;58618;47.490;8.736;2022-12-18T02:49:14;97534.78;;;-2.03;100.00
70954;BME280;58618;47.490;8.736;2022-12-18T02:51:50;97550.41;;;-1.99;100.00
70954;BME280;58618;47.490;8.736;2022-12-18T02:54:26;97541.94;;;-2.06;100.00
70954;BME280;58618;47.490;8.736;2022-12-18T02:57:08;97579.41;;;-1.87;100.00
70954;BME280;58618;47.490;8.736;2022-12-18T02:59:47;97551.75;;;-2.11;100.00
70954;BME280;58618;47.490;8.736;2022-12-18T03:02:21;97558.34;;;-2.10;100.00
70954;BME280;58618;47.490;8.736;2022-12-18T03:04:56;97566.22;;;-2.05;100.00
70954;BME280;58618;47.490;8.736;2022-12-18T03:07:34;97545.19;;;-2.29;100.00
70954;BME280;58618;47.490;8.736;2022-12-18T03:10:04;97560.94;;;-2.19;100.00
70954;BME280;58618;47.490;8.736;2022-12-18T03:12:38;97558.25;;;-2.17;100.00
70954;BME280;58618;47.490;8.736;2022-12-18T03:15:11;97523.44;;;-2.38;100.00
70954;BME280;58618;47.490;8.736;2022-12-18T03:17:45;97588.31;;;-1.99;100.00
70954;BME280;58618;47.490;8.736;2022-12-18T03:20:18;97589.25;;;-2.00;100.00
70954;BME280;58618;47.490;8.736;2022-12-18T03:22:50;97588.16;;;-1.98;100.00
70954;BME280;58618;47.490;8.736;2022-12-18T03:25:20;97576.38;;;-2.14;100.00
70954;BME280;58618;47.490;8.736;2022-12-18T03:27:53;97537.66;;;-2.37;100.00
70954;BME280;58618;47.490;8.736;2022-12-18T03:30:22;97589.59;;;-2.03;100.00
70954;BME280;58618;47.490;8.736;2022-12-18T03:32:53;97580.31;;;-2.11;100.00
70954;BME280;58618;47.490;8.736;2022-12-18T03:35:28;97539.56;;;-2.39;100.00
70954;BME280;58618;47.490;8.736;2022-12-18T03:37:57;97614.88;;;-2.03;100.00
70954;BME280;58618;47.490;8.736;2022-12-18T03:40:31;97604.78;;;-2.03;100.00
70954;BME280;58618;47.490;8.736;2022-12-18T03:43:10;97580.38;;;-2.19;100.00
70954;BME280;58618;47.490;8.736;2022-12-18T03:45:44;97582.53;;;-2.16;100.00
70954;BME280;58618;47.490;8.736;2022-12-18T03:48:19;97591.25;;;-2.19;100.00
70954;BME280;58618;47.490;8.736;2022-12-18T03:50:53;97563.25;;;-2.40;100.00
70954;BME280;58618;47.490;8.736;2022-12-18T03:53:31;97587.84;;;-2.34;100.00
70954;BME280;58618;47.490;8.736;2022-12-18T03:56:01;97617.28;;;-2.10;100.00
70954;BME280;58618;47.490;8.736;2022-12-18T03:58:34;97583.72;;;-2.27;100.00
70954;BME280;58618;47.490;8.736;2022-12-18T04:01:04;97592.66;;;-2.16;100.00
70954;BME280;58618;47.490;8.736;2022-12-18T04:03:34;97575.97;;;-2.25;100.00
70954;BME280;58618;47.490;8.736;2022-12-18T04:06:03;97604.97;;;-2.13;100.00
70954;BME280;58618;47.490;8.736;2022-12-18T04:08:36;97595.03;;;-2.15;100.00
70954;BME280;58618;47.490;8.736;2022-12-18T04:11:08;97560.38;;;-2.37;100.00
70954;BME280;58618;47.490;8.736;2022-12-18T04:13:42;97587.16;;;-2.20;100.00
70954;BME280;58618;47.490;8.736;2022-12-18T04:16:11;97566.06;;;-2.35;100.00
70954;BME280;58618;47.490;8.736;2022-12-18T04:18:42;97566.38;;;-2.38;100.00
70954;BME280;58618;47.490;8.736;2022-12-18T04:21:10;97571.13;;;-2.35;100.00
70954;BME280;58618;47.490;8.736;2022-12-18T04:23:38;97583.13;;;-2.37;100.00
70954;BME280;58618;47.490;8.736;2022-12-18T04:26:07;97597.63;;;-2.31;100.00
70954;BME280;58618;47.490;8.736;2022-12-18T04:28:35;97581.09;;;-2.41;100.00
70954;BME280;58618;47.490;8.736;2022-12-18T04:31:04;97606.50;;;-2.35;100.00
70954;BME280;58618;47.490;8.736;2022-12-18T04:33:33;97621.94;;;-2.30;100.00
70954;BME280;58618;47.490;8.736;2022-12-18T04:36:00;97605.56;;;-2.42;100.00
70954;BME280;58618;47.490;8.736;2022-12-18T04:38:29;97614.72;;;-2.41;100.00
70954;BME280;58618;47.490;8.736;2022-12-18T04:40:57;97652.19;;;-2.14;100.00
70954;BME280;58618;47.490;8.736;2022-12-18T04:43:26;97599.91;;;-2.52;100.00
70954;BME280;58618;47.490;8.736;2022-12-18T04:46:01;97657.56;;;-2.17;100.00
70954;BME280;58618;47.490;8.736;2022-12-18T04:48:32;97635.50;;;-2.31;100.00
70954;BME280;58618;47.490;8.736;2022-12-18T04:51:00;97656.97;;;-2.19;100.00
70954;BME280;58618;47.490;8.736;2022-12-18T04:53:28;97618.03;;;-2.40;100.00
70954;BME280;58618;47.490;8.736;2022-12-18T04:56:04;97619.13;;;-2.43;100.00
70954;BME280;58618;47.490;8.736;2022-12-18T04:58:33;97618.19;;;-2.42;100.00
70954;BME280;58618;47.490;8.736;2022-12-18T05:01:01;97596.78;;;-2.54;100.00
70954;BME280;58618;47.490;8.736;2022-12-18T05:03:32;97590.16;;;-2.55;100.00
70954;BME280;58618;47.490;8.736;2022-12-18T05:06:00;97585.09;;;-2.55;100.00
70954;BME280;58618;47.490;8.736;2022-12-18T05:08:30;97585.53;;;-2.51;100.00
70954;BME280;58618;47.490;8.736;2022-12-18T05:10:59;97633.59;;;-2.21;100.00
70954;BME280;58618;47.490;8.736;2022-12-18T05:13:29;97619.44;;;-2.38;100.00
70954;BME280;58618;47.490;8.736;2022-12-18T05:16:00;97580.84;;;-2.54;100.00
70954;BME280;58618;47.490;8.736;2022-12-18T05:18:31;97591.72;;;-2.54;100.00
70954;BME280;58618;47.490;8.736;2022-12-18T05:20:59;97614.22;;;-2.36;100.00
70954;BME280;58618;47.490;8.736;2022-12-18T05:23:28;97650.63;;;-2.15;100.00
70954;BME280;58618;47.490;8.736;2022-12-18T05:25:58;97627.50;;;-2.34;100.00
70954;BME280;58618;47.490;8.736;2022-12-18T05:28:28;97631.56;;;-2.25;100.00
70954;BME280;58618;47.490;8.736;2022-12-18T05:30:59;97603.06;;;-2.50;100.00
70954;BME280;58618;47.490;8.736;2022-12-18T05:33:33;97648.59;;;-2.27;100.00
70954;BME280;58618;47.490;8.736;2022-12-18T05:36:05;97645.91;;;-2.26;100.00
70954;BME280;58618;47.490;8.736;2022-12-18T05:38:36;97617.56;;;-2.44;100.00
70954;BME280;58618;47.490;8.736;2022-12-18T05:41:08;97637.59;;;-2.34;100.00
70954;BME280;58618;47.490;8.736;2022-12-18T05:43:40;97617.28;;;-2.49;100.00
70954;BME280;58618;47.490;8.736;2022-12-18T05:46:12;97673.69;;;-2.18;100.00
70954;BME280;58618;47.490;8.736;2022-12-18T05:48:45;97619.50;;;-2.54;100.00
70954;BME280;58618;47.490;8.736;2022-12-18T05:51:20;97643.75;;;-2.37;100.00
70954;BME280;58618;47.490;8.736;2022-12-18T05:53:49;97611.59;;;-2.51;100.00
70954;BME280;58618;47.490;8.736;2022-12-18T05:56:22;97671.78;;;-2.16;100.00
70954;BME280;58618;47.490;8.736;2022-12-18T05:58:52;97678.56;;;-2.16;100.00
70954;BME280;58618;47.490;8.736;2022-12-18T06:01:24;97639.47;;;-2.36;100.00
70954;BME280;58618;47.490;8.736;2022-12-18T06:04:03;97666.72;;;-2.16;100.00
70954;BME280;58618;47.490;8.736;2022-12-18T06:06:32;97653.19;;;-2.31;100.00
70954;BME280;58618;47.490;8.736;2022-12-18T06:09:00;97619.47;;;-2.46;100.00
70954;BME280;58618;47.490;8.736;2022-12-18T06:11:37;97612.03;;;-2.47;100.00
70954;BME280;58618;47.490;8.736;2022-12-18T06:14:11;97642.44;;;-2.25;100.00
70954;BME280;58618;47.490;8.736;2022-12-18T06:16:38;97636.59;;;-2.25;100.00
70954;BME280;58618;47.490;8.736;2022-12-18T06:19:13;97658.19;;;-2.15;100.00
70954;BME280;58618;47.490;8.736;2022-12-18T06:21:41;97649.09;;;-2.24;100.00
70954;BME280;58618;47.490;8.736;2022-12-18T06:24:09;97673.06;;;-2.11;100.00
70954;BME280;58618;47.490;8.736;2022-12-18T06:26:37;97658.84;;;-2.21;100.00
70954;BME280;58618;47.490;8.736;2022-12-18T06:29:07;97629.53;;;-2.38;100.00
70954;BME280;58618;47.490;8.736;2022-12-18T06:31:35;97696.56;;;-2.03;100.00
70954;BME280;58618;47.490;8.736;2022-12-18T06:34:04;97662.16;;;-2.20;100.00
70954;BME280;58618;47.490;8.736;2022-12-18T06:36:33;97672.56;;;-2.15;100.00
70954;BME280;58618;47.490;8.736;2022-12-18T06:39:00;97697.78;;;-1.99;100.00
70954;BME280;58618;47.490;8.736;2022-12-18T06:41:27;97680.13;;;-2.07;100.00
70954;BME280;58618;47.490;8.736;2022-12-18T06:43:55;97633.00;;;-2.31;100.00
70954;BME280;58618;47.490;8.736;2022-12-18T06:46:24;97671.13;;;-2.09;100.00
70954;BME280;58618;47.490;8.736;2022-12-18T06:48:53;97675.53;;;-2.03;100.00
70954;BME280;58618;47.490;8.736;2022-12-18T06:51:21;97692.28;;;-2.02;100.00
70954;BME280;58618;47.490;8.736;2022-12-18T06:53:52;97683.47;;;-2.06;100.00
70954;BME280;58618;47.490;8.736;2022-12-18T06:56:19;97708.97;;;-1.85;100.00
70954;BME280;58618;47.490;8.736;2022-12-18T06:58:47;97709.63;;;-1.99;100.00
70954;BME280;58618;47.490;8.736;2022-12-18T07:01:15;97720.38;;;-1.97;100.00
70954;BME280;58618;47.490;8.736;2022-12-18T07:03:43;97717.56;;;-2.02;100.00
70954;BME280;58618;47.490;8.736;2022-12-18T07:06:15;97738.03;;;-1.89;100.00
70954;BME280;58618;47.490;8.736;2022-12-18T07:08:42;97742.44;;;-1.83;100.00
70954;BME280;58618;47.490;8.736;2022-12-18T07:11:12;97692.97;;;-2.25;100.00
70954;BME280;58618;47.490;8.736;2022-12-18T07:13:39;97692.81;;;-2.23;100.00
70954;BME280;58618;47.490;8.736;2022-12-18T07:16:09;97727.97;;;-2.05;100.00
70954;BME280;58618;47.490;8.736;2022-12-18T07:18:38;97723.31;;;-2.25;100.00
70954;BME280;58618;47.490;8.736;2022-12-18T07:21:09;97717.91;;;-2.22;100.00
70954;BME280;58618;47.490;8.736;2022-12-18T07:23:38;97747.56;;;-1.99;100.00
70954;BME280;58618;47.490;8.736;2022-12-18T07:26:08;97762.44;;;-2.13;100.00
70954;BME280;58618;47.490;8.736;2022-12-18T07:28:40;97727.59;;;-2.58;100.00
70954;BME280;58618;47.490;8.736;2022-12-18T07:31:10;97731.56;;;-2.55;100.00
70954;BME280;58618;47.490;8.736;2022-12-18T07:33:39;97712.78;;;-2.77;100.00
70954;BME280;58618;47.490;8.736;2022-12-18T07:36:09;97717.69;;;-2.75;100.00
70954;BME280;58618;47.490;8.736;2022-12-18T07:38:37;97714.34;;;-2.51;100.00
70954;BME280;58618;47.490;8.736;2022-12-18T07:41:07;97704.38;;;-2.37;100.00
70954;BME280;58618;47.490;8.736;2022-12-18T07:43:38;97732.78;;;-2.43;100.00
70954;BME280;58618;47.490;8.736;2022-12-18T07:46:11;97755.06;;;-2.46;100.00
70954;BME280;58618;47.490;8.736;2022-12-18T07:48:40;97758.38;;;-2.46;100.00
70954;BME280;58618;47.490;8.736;2022-12-18T07:53:57;97761.06;;;-2.56;100.00
70954;BME280;58618;47.490;8.736;2022-12-18T07:56:25;97740.41;;;-2.75;100.00
70954;BME280;58618;47.490;8.736;2022-12-18T07:58:54;97722.09;;;-2.77;100.00
70954;BME280;58618;47.490;8.736;2022-12-18T08:01:22;97770.38;;;-2.24;100.00
70954;BME280;58618;47.490;8.736;2022-12-18T08:03:51;97731.53;;;-2.47;100.00
70954;BME280;58618;47.490;8.736;2022-12-18T08:06:34;97773.84;;;-2.25;100.00
70954;BME280;58618;47.490;8.736;2022-12-18T08:09:15;97716.41;;;-2.55;100.00
70954;BME280;58618;47.490;8.736;2022-12-18T08:11:43;97737.81;;;-2.19;100.00
70954;BME280;58618;47.490;8.736;2022-12-18T08:14:13;97757.81;;;-2.01;100.00
70954;BME280;58618;47.490;8.736;2022-12-18T08:16:41;97787.31;;;-1.77;100.00
70954;BME280;58618;47.490;8.736;2022-12-18T08:19:14;97750.88;;;-1.91;100.00
70954;BME280;58618;47.490;8.736;2022-12-18T08:21:42;97788.19;;;-1.54;100.00
70954;BME280;58618;47.490;8.736;2022-12-18T08:24:09;97782.59;;;-1.80;100.00
70954;BME280;58618;47.490;8.736;2022-12-18T08:26:37;97779.03;;;-1.63;100.00
70954;BME280;58618;47.490;8.736;2022-12-18T08:29:05;97767.03;;;-1.61;100.00
70954;BME280;58618;47.490;8.736;2022-12-18T08:31:34;97747.44;;;-1.67;100.00
70954;BME280;58618;47.490;8.736;2022-12-18T08:37:12;97747.31;;;-1.43;100.00
70954;BME280;58618;47.490;8.736;2022-12-18T08:39:39;97773.19;;;-1.24;100.00
70954;BME280;58618;47.490;8.736;2022-12-18T08:42:07;97790.53;;;-1.13;100.00
70954;BME280;58618;47.490;8.736;2022-12-18T08:44:52;97802.56;;;-1.15;100.00
70954;BME280;58618;47.490;8.736;2022-12-18T08:47:39;97781.28;;;-1.29;100.00
70954;BME280;58618;47.490;8.736;2022-12-18T08:50:09;97768.34;;;-1.34;100.00
70954;BME280;58618;47.490;8.736;2022-12-18T08:52:38;97799.06;;;-1.14;100.00
70954;BME280;58618;47.490;8.736;2022-12-18T08:57:41;97800.66;;;-1.13;100.00
70954;BME280;58618;47.490;8.736;2022-12-18T09:00:12;97737.84;;;-1.41;100.00
70954;BME280;58618;47.490;8.736;2022-12-18T09:02:41;97759.81;;;-1.10;100.00
70954;BME280;58618;47.490;8.736;2022-12-18T09:05:08;97771.75;;;-0.96;100.00
70954;BME280;58618;47.490;8.736;2022-12-18T09:07:36;97768.09;;;-0.94;100.00
70954;BME280;58618;47.490;8.736;2022-12-18T09:10:04;97744.06;;;-0.98;100.00
70954;BME280;58618;47.490;8.736;2022-12-18T09:12:32;97743.25;;;-0.90;100.00
70954;BME280;58618;47.490;8.736;2022-12-18T09:14:59;97763.31;;;-0.66;100.00
70954;BME280;58618;47.490;8.736;2022-12-18T09:17:26;97746.94;;;-0.78;100.00
70954;BME280;58618;47.490;8.736;2022-12-18T09:19:56;97761.84;;;-0.60;100.00
70954;BME280;58618;47.490;8.736;2022-12-18T09:22:24;97714.09;;;-0.86;100.00
70954;BME280;58618;47.490;8.736;2022-12-18T09:24:51;97717.06;;;-0.82;100.00
70954;BME280;58618;47.490;8.736;2022-12-18T09:27:19;97746.88;;;-0.70;100.00
70954;BME280;58618;47.490;8.736;2022-12-18T09:29:47;97730.53;;;-0.67;100.00
70954;BME280;58618;47.490;8.736;2022-12-18T09:32:14;97766.16;;;-0.46;100.00
70954;BME280;58618;47.490;8.736;2022-12-18T09:34:41;97747.09;;;-0.57;100.00
70954;BME280;58618;47.490;8.736;2022-12-18T09:37:10;97775.78;;;-0.42;100.00
70954;BME280;58618;47.490;8.736;2022-12-18T09:39:39;97727.06;;;-0.66;100.00
70954;BME280;58618;47.490;8.736;2022-12-18T09:42:10;97763.72;;;-0.39;100.00
70954;BME280;58618;47.490;8.736;2022-12-18T09:44:45;97766.19;;;-0.31;98.80
70954;BME280;58618;47.490;8.736;2022-12-18T09:47:18;97749.34;;;-0.62;97.27
70954;BME280;58618;47.490;8.736;2022-12-18T09:49:50;97735.06;;;-0.77;98.30
70954;BME280;58618;47.490;8.736;2022-12-18T09:52:25;97745.19;;;-0.55;98.93
70954;BME280;58618;47.490;8.736;2022-12-18T09:54:56;97765.59;;;-0.33;98.49
70954;BME280;58618;47.490;8.736;2022-12-18T09:57:26;97743.25;;;-0.53;98.84
70954;BME280;58618;47.490;8.736;2022-12-18T09:59:57;97772.50;;;-0.27;97.18
70954;BME280;58618;47.490;8.736;2022-12-18T10:02:30;97755.03;;;-0.22;98.65
70954;BME280;58618;47.490;8.736;2022-12-18T10:05:05;97765.34;;;-0.09;96.21
70954;BME280;58618;47.490;8.736;2022-12-18T10:07:41;97752.84;;;-0.11;96.40
70954;BME280;58618;47.490;8.736;2022-12-18T10:10:21;97748.91;;;-0.13;94.21
70954;BME280;58618;47.490;8.736;2022-12-18T10:12:55;97773.41;;;-0.06;96.89
70954;BME280;58618;47.490;8.736;2022-12-18T10:15:31;97767.81;;;-0.01;97.00
70954;BME280;58618;47.490;8.736;2022-12-18T10:18:10;97762.75;;;-0.01;96.77
70954;BME280;58618;47.490;8.736;2022-12-18T10:20:45;97725.19;;;-0.20;97.23
70954;BME280;58618;47.490;8.736;2022-12-18T10:23:19;97773.47;;;0.01;94.39
70954;BME280;58618;47.490;8.736;2022-12-18T10:26:02;97763.84;;;-0.18;93.65
70954;BME280;58618;47.490;8.736;2022-12-18T10:28:31;97776.59;;;-0.64;95.27
70954;BME280;58618;47.490;8.736;2022-12-18T10:31:02;97760.81;;;-0.51;96.66
70954;BME280;58618;47.490;8.736;2022-12-18T10:33:34;97778.09;;;-0.17;97.41
70954;BME280;58618;47.490;8.736;2022-12-18T10:36:02;97786.69;;;-0.04;96.03
70954;BME280;58618;47.490;8.736;2022-12-18T10:38:40;97781.44;;;-0.02;95.89
70954;BME280;58618;47.490;8.736;2022-12-18T10:41:24;97776.72;;;-0.05;95.13
70954;BME280;58618;47.490;8.736;2022-12-18T10:44:11;97763.00;;;-0.11;96.07
70954;BME280;58618;47.490;8.736;2022-12-18T10:46:40;97784.34;;;0.10;96.31
70954;BME280;58618;47.490;8.736;2022-12-18T10:49:19;97769.63;;;-0.10;96.14
70954;BME280;58618;47.490;8.736;2022-12-18T10:51:48;97790.91;;;0.04;97.00
70954;BME280;58618;47.490;8.736;2022-12-18T10:54:21;97757.47;;;-0.14;95.36
70954;BME280;58618;47.490;8.736;2022-12-18T10:56:49;97750.75;;;-0.22;94.37
70954;BME280;58618;47.490;8.736;2022-12-18T10:59:17;97759.63;;;-0.26;94.91
70954;BME280;58618;47.490;8.736;2022-12-18T11:01:47;97786.84;;;-0.05;94.88
70954;BME280;58618;47.490;8.736;2022-12-18T11:04:18;97779.34;;;-0.13;94.35
70954;BME280;58618;47.490;8.736;2022-12-18T11:06:54;97786.84;;;-0.05;95.15
70954;BME280;58618;47.490;8.736;2022-12-18T11:09:24;97782.72;;;-0.21;94.13
70954;BME280;58618;47.490;8.736;2022-12-18T11:11:53;97776.31;;;-0.31;95.57
70954;BME280;58618;47.490;8.736;2022-12-18T11:14:23;97770.41;;;-0.09;94.08
70954;BME280;58618;47.490;8.736;2022-12-18T11:16:52;97772.69;;;-0.52;96.41
70954;BME280;58618;47.490;8.736;2022-12-18T11:19:26;97775.63;;;-0.63;97.96
70954;BME280;58618;47.490;8.736;2022-12-18T11:21:56;97764.28;;;-0.29;96.86
70954;BME280;58618;47.490;8.736;2022-12-18T11:24:29;97751.84;;;-0.76;96.35
70954;BME280;58618;47.490;8.736;2022-12-18T11:26:59;97747.69;;;-0.69;96.96
70954;BME280;58618;47.490;8.736;2022-12-18T11:29:32;97761.81;;;-0.37;97.96
70954;BME280;58618;47.490;8.736;2022-12-18T11:32:22;97751.66;;;0.00;95.89
70954;BME280;58618;47.490;8.736;2022-12-18T11:34:59;97742.03;;;0.10;93.85
70954;BME280;58618;47.490;8.736;2022-12-18T11:37:29;97744.44;;;0.18;94.87
70954;BME280;58618;47.490;8.736;2022-12-18T11:40:00;97738.75;;;0.16;93.53
70954;BME280;58618;47.490;8.736;2022-12-18T11:42:34;97694.88;;;-0.28;92.07
70954;BME280;58618;47.490;8.736;2022-12-18T11:45:16;97714.41;;;-0.52;95.89
70954;BME280;58618;47.490;8.736;2022-12-18T11:47:52;97718.59;;;-0.21;95.43
70954;BME280;58618;47.490;8.736;2022-12-18T11:50:25;97715.00;;;0.03;95.92
70954;BME280;58618;47.490;8.736;2022-12-18T11:52:53;97717.78;;;-0.07;95.31
70954;BME280;58618;47.490;8.736;2022-12-18T11:55:37;97729.47;;;-0.35;95.07
70954;BME280;58618;47.490;8.736;2022-12-18T11:58:12;97719.28;;;-0.13;94.84
70954;BME280;58618;47.490;8.736;2022-12-18T12:00:49;97727.22;;;-0.16;93.46
70954;BME280;58618;47.490;8.736;2022-12-18T12:03:39;97734.03;;;-0.68;96.30
70954;BME280;58618;47.490;8.736;2022-12-18T12:06:14;97727.81;;;-0.43;96.48
70954;BME280;58618;47.490;8.736;2022-12-18T12:08:57;97717.31;;;-0.40;96.33
70954;BME280;58618;47.490;8.736;2022-12-18T12:11:34;97717.84;;;-0.82;97.87
70954;BME280;58618;47.490;8.736;2022-12-18T12:14:16;97728.25;;;-0.39;98.60
70954;BME280;58618;47.490;8.736;2022-12-18T12:16:52;97751.72;;;-0.08;96.19
70954;BME280;58618;47.490;8.736;2022-12-18T12:19:34;97738.59;;;0.03;95.89
70954;BME280;58618;47.490;8.736;2022-12-18T12:22:12;97739.47;;;-0.19;96.06
70954;BME280;58618;47.490;8.736;2022-12-18T12:24:53;97725.81;;;-0.04;96.52
70954;BME280;58618;47.490;8.736;2022-12-18T12:27:30;97717.97;;;-0.23;95.19
70954;BME280;58618;47.490;8.736;2022-12-18T12:30:05;97725.09;;;-0.42;96.67
70954;BME280;58618;47.490;8.736;2022-12-18T12:32:46;97719.47;;;-0.52;97.04
70954;BME280;58618;47.490;8.736;2022-12-18T12:35:25;97694.81;;;-0.58;96.86
70954;BME280;58618;47.490;8.736;2022-12-18T12:38:04;97697.47;;;-0.36;97.88
70954;BME280;58618;47.490;8.736;2022-12-18T12:40:35;97696.88;;;-0.09;98.32
70954;BME280;58618;47.490;8.736;2022-12-18T12:43:16;97704.56;;;0.12;96.32
70954;BME280;58618;47.490;8.736;2022-12-18T12:45:49;97704.50;;;-0.09;95.63
70954;BME280;58618;47.490;8.736;2022-12-18T12:48:27;97699.16;;;-0.81;98.04
70954;BME280;58618;47.490;8.736;2022-12-18T12:50:58;97712.00;;;-0.82;98.79
70954;BME280;58618;47.490;8.736;2022-12-18T12:53:31;97702.22;;;-0.86;99.37
70954;BME280;58618;47.490;8.736;2022-12-18T12:56:00;97696.13;;;-0.76;99.91
70954;BME280;58618;47.490;8.736;2022-12-18T12:58:34;97680.00;;;-0.61;99.13
70954;BME280;58618;47.490;8.736;2022-12-18T13:01:12;97691.63;;;-0.89;99.69
70954;BME280;58618;47.490;8.736;2022-12-18T13:03:48;97693.81;;;-0.86;100.00
70954;BME280;58618;47.490;8.736;2022-12-18T13:06:27;97688.56;;;-0.47;100.00
70954;BME280;58618;47.490;8.736;2022-12-18T13:08:58;97686.66;;;-0.30;99.60
70954;BME280;58618;47.490;8.736;2022-12-18T13:11:30;97694.78;;;-0.20;98.06
70954;BME280;58618;47.490;8.736;2022-12-18T13:14:27;97677.41;;;-0.23;99.39
70954;BME280;58618;47.490;8.736;2022-12-18T13:17:14;97702.31;;;-0.12;100.00
70954;BME280;58618;47.490;8.736;2022-12-18T13:20:03;97655.72;;;-0.55;98.60
70954;BME280;58618;47.490;8.736;2022-12-18T13:22:35;97656.28;;;-0.68;98.87
70954;BME280;58618;47.490;8.736;2022-12-18T13:25:33;97660.34;;;-0.59;99.30